sensor_id;sensor_type;location;lat;lon;timestamp;pressure;altitude;pressure_sealevel;temperature;humidity
61528;BME280;47395;42.032;-8.634;2022-08-24T00:01:50;100417.97;;;24.23;64.54
61528;BME280;47395;42.032;-8.634;2022-08-24T00:03:51;100422.34;;;24.16;64.98
61528;BME280;47395;42.032;-8.634;2022-08-24T00:05:52;100424.56;;;24.12;65.27
61528;BME280;47395;42.032;-8.634;2022-08-24T00:07:53;100422.69;;;24.12;65.14
61528;BME280;47395;42.032;-8.634;2022-08-24T00:09:54;100427.25;;;24.12;65.57
61528;BME280;47395;42.032;-8.634;2022-08-24T00:11:56;100421.69;;;24.05;65.90
61528;BME280;47395;42.032;-8.634;2022-08-24T00:13:57;100425.72;;;24.01;66.10
61528;BME280;47395;42.032;-8.634;2022-08-24T00:15:58;100428.03;;;24.04;65.58
61528;BME280;47395;42.032;-8.634;2022-08-24T00:17:59;100416.47;;;23.95;66.10
61528;BME280;47395;42.032;-8.634;2022-08-24T00:20:00;100420.69;;;23.90;66.45
61528;BME280;47395;42.032;-8.634;2022-08-24T00:22:02;100418.53;;;23.85;66.63
61528;BME280;47395;42.032;-8.634;2022-08-24T00:24:03;100421.38;;;23.83;66.79
61528;BME280;47395;42.032;-8.634;2022-08-24T00:26:05;100421.38;;;23.83;66.73
61528;BME280;47395;42.032;-8.634;2022-08-24T00:28:06;100409.06;;;23.89;66.43
61528;BME280;47395;42.032;-8.634;2022-08-24T00:30:09;100414.44;;;23.89;66.60
61528;BME280;47395;42.032;-8.634;2022-08-24T00:32:11;100409.59;;;23.84;67.35
61528;BME280;47395;42.032;-8.634;2022-08-24T00:34:12;100406.75;;;23.78;67.15
61528;BME280;47395;42.032;-8.634;2022-08-24T00:36:13;100413.78;;;23.87;67.17
61528;BME280;47395;42.032;-8.634;2022-08-24T00:38:14;100417.66;;;23.93;67.46
61528;BME280;47395;42.032;-8.634;2022-08-24T00:40:27;100411.75;;;23.97;66.91
61528;BME280;47395;42.032;-8.634;2022-08-24T00:42:28;100397.97;;;23.84;67.12
61528;BME280;47395;42.032;-8.634;2022-08-24T00:44:29;100407.75;;;23.85;67.03
61528;BME280;47395;42.032;-8.634;2022-08-24T00:46:50;100407.25;;;23.81;67.30
61528;BME280;47395;42.032;-8.634;2022-08-24T00:49:04;100403.72;;;23.72;67.42
61528;BME280;47395;42.032;-8.634;2022-08-24T00:51:13;100407.09;;;23.66;67.64
61528;BME280;47395;42.032;-8.634;2022-08-24T00:53:25;100399.38;;;23.63;67.86
61528;BME280;47395;42.032;-8.634;2022-08-24T00:55:34;100408.59;;;23.69;67.65
61528;BME280;47395;42.032;-8.634;2022-08-24T00:57:39;100403.56;;;23.66;67.80
61528;BME280;47395;42.032;-8.634;2022-08-24T00:59:58;100400.88;;;23.57;67.89
61528;BME280;47395;42.032;-8.634;2022-08-24T01:02:04;100399.22;;;23.48;68.13
61528;BME280;47395;42.032;-8.634;2022-08-24T01:04:07;100410.78;;;23.40;68.76
61528;BME280;47395;42.032;-8.634;2022-08-24T01:06:10;100402.88;;;23.30;69.02
61528;BME280;47395;42.032;-8.634;2022-08-24T01:08:12;100408.25;;;23.30;68.96
61528;BME280;47395;42.032;-8.634;2022-08-24T01:10:17;100402.72;;;23.32;69.18
61528;BME280;47395;42.032;-8.634;2022-08-24T01:12:19;100408.25;;;23.30;69.21
61528;BME280;47395;42.032;-8.634;2022-08-24T01:14:21;100402.88;;;23.22;69.26
61528;BME280;47395;42.032;-8.634;2022-08-24T01:16:23;100412.75;;;23.21;69.65
61528;BME280;47395;42.032;-8.634;2022-08-24T01:18:43;100410.94;;;23.22;69.68
61528;BME280;47395;42.032;-8.634;2022-08-24T01:20:58;100416.63;;;23.19;69.82
61528;BME280;47395;42.032;-8.634;2022-08-24T01:25:26;100414.25;;;23.16;70.29
61528;BME280;47395;42.032;-8.634;2022-08-24T01:27:28;100414.94;;;23.10;70.37
61528;BME280;47395;42.032;-8.634;2022-08-24T01:29:30;100409.88;;;23.06;70.37
61528;BME280;47395;42.032;-8.634;2022-08-24T01:31:31;100407.19;;;23.06;70.20
61528;BME280;47395;42.032;-8.634;2022-08-24T01:33:32;100405.34;;;22.99;70.33
61528;BME280;47395;42.032;-8.634;2022-08-24T01:35:34;100417.47;;;23.11;69.82
61528;BME280;47395;42.032;-8.634;2022-08-24T01:37:36;100407.91;;;23.17;69.67
61528;BME280;47395;42.032;-8.634;2022-08-24T01:39:40;100403.53;;;23.24;69.22
61528;BME280;47395;42.032;-8.634;2022-08-24T01:41:42;100400.69;;;23.26;68.88
61528;BME280;47395;42.032;-8.634;2022-08-24T01:43:43;100397.28;;;22.99;69.94
61528;BME280;47395;42.032;-8.634;2022-08-24T01:45:44;100398.63;;;23.03;69.80
61528;BME280;47395;42.032;-8.634;2022-08-24T01:47:45;100398.28;;;22.98;69.87
61528;BME280;47395;42.032;-8.634;2022-08-24T01:49:47;100406.69;;;22.94;69.82
61528;BME280;47395;42.032;-8.634;2022-08-24T01:51:53;100413.53;;;22.89;70.20
61528;BME280;47395;42.032;-8.634;2022-08-24T01:53:54;100411.03;;;22.79;70.42
61528;BME280;47395;42.032;-8.634;2022-08-24T01:55:55;100413.31;;;22.65;71.07
61528;BME280;47395;42.032;-8.634;2022-08-24T01:57:57;100412.63;;;22.63;70.81
61528;BME280;47395;42.032;-8.634;2022-08-24T01:59:58;100400.06;;;22.64;70.94
61528;BME280;47395;42.032;-8.634;2022-08-24T02:02:03;100402.41;;;22.59;70.47
61528;BME280;47395;42.032;-8.634;2022-08-24T02:04:06;100404.66;;;22.53;70.57
61528;BME280;47395;42.032;-8.634;2022-08-24T02:06:09;100400.97;;;22.46;70.80
61528;BME280;47395;42.032;-8.634;2022-08-24T02:08:11;100400.44;;;22.42;70.89
61528;BME280;47395;42.032;-8.634;2022-08-24T02:10:13;100400.22;;;22.36;71.26
61528;BME280;47395;42.032;-8.634;2022-08-24T02:12:14;100401.25;;;22.35;71.28
61528;BME280;47395;42.032;-8.634;2022-08-24T02:14:15;100404.63;;;22.37;71.05
61528;BME280;47395;42.032;-8.634;2022-08-24T02:16:16;100392.53;;;22.33;70.80
61528;BME280;47395;42.032;-8.634;2022-08-24T02:18:17;100400.41;;;22.34;71.17
61528;BME280;47395;42.032;-8.634;2022-08-24T02:20:18;100400.22;;;22.27;71.39
61528;BME280;47395;42.032;-8.634;2022-08-24T02:22:21;100408.28;;;22.36;71.07
61528;BME280;47395;42.032;-8.634;2022-08-24T02:24:22;100407.63;;;22.34;70.69
61528;BME280;47395;42.032;-8.634;2022-08-24T02:26:24;100413.00;;;22.34;70.57
61528;BME280;47395;42.032;-8.634;2022-08-24T02:28:25;100409.13;;;22.36;70.40
61528;BME280;47395;42.032;-8.634;2022-08-24T02:30:26;100414.31;;;22.29;70.84
61528;BME280;47395;42.032;-8.634;2022-08-24T02:32:28;100411.72;;;22.20;70.86
61528;BME280;47395;42.032;-8.634;2022-08-24T02:34:29;100423.31;;;22.20;70.74
61528;BME280;47395;42.032;-8.634;2022-08-24T02:36:30;100420.47;;;22.22;70.76
61528;BME280;47395;42.032;-8.634;2022-08-24T02:38:32;100421.25;;;22.14;70.78
61528;BME280;47395;42.032;-8.634;2022-08-24T02:40:33;100423.53;;;22.00;71.37
61528;BME280;47395;42.032;-8.634;2022-08-24T02:42:35;100425.91;;;22.03;71.21
61528;BME280;47395;42.032;-8.634;2022-08-24T02:44:36;100425.47;;;21.90;71.22
61528;BME280;47395;42.032;-8.634;2022-08-24T02:46:37;100427.44;;;21.80;71.77
61528;BME280;47395;42.032;-8.634;2022-08-24T02:48:39;100428.16;;;21.90;71.39
61528;BME280;47395;42.032;-8.634;2022-08-24T02:50:43;100438.53;;;21.85;71.90
61528;BME280;47395;42.032;-8.634;2022-08-24T02:52:45;100428.31;;;21.88;72.09
61528;BME280;47395;42.032;-8.634;2022-08-24T02:54:46;100426.78;;;21.86;71.34
61528;BME280;47395;42.032;-8.634;2022-08-24T02:56:47;100430.31;;;21.86;71.37
61528;BME280;47395;42.032;-8.634;2022-08-24T02:58:49;100435.84;;;21.85;71.60
61528;BME280;47395;42.032;-8.634;2022-08-24T03:00:50;100431.31;;;21.67;72.01
61528;BME280;47395;42.032;-8.634;2022-08-24T03:02:54;100433.06;;;21.58;72.62
61528;BME280;47395;42.032;-8.634;2022-08-24T03:04:55;100430.72;;;21.55;72.66
61528;BME280;47395;42.032;-8.634;2022-08-24T03:06:56;100439.59;;;21.56;72.66
61528;BME280;47395;42.032;-8.634;2022-08-24T03:08:59;100435.38;;;21.53;72.97
61528;BME280;47395;42.032;-8.634;2022-08-24T03:11:00;100438.53;;;21.48;73.26
61528;BME280;47395;42.032;-8.634;2022-08-24T03:13:01;100435.63;;;21.42;73.03
61528;BME280;47395;42.032;-8.634;2022-08-24T03:15:05;100439.50;;;21.47;72.72
61528;BME280;47395;42.032;-8.634;2022-08-24T03:17:06;100434.63;;;21.43;73.13
61528;BME280;47395;42.032;-8.634;2022-08-24T03:19:07;100437.53;;;21.31;73.44
61528;BME280;47395;42.032;-8.634;2022-08-24T03:21:10;100442.34;;;21.28;73.67
61528;BME280;47395;42.032;-8.634;2022-08-24T03:23:16;100441.16;;;21.40;73.12
61528;BME280;47395;42.032;-8.634;2022-08-24T03:25:20;100440.69;;;21.26;73.23
61528;BME280;47395;42.032;-8.634;2022-08-24T03:27:24;100440.84;;;21.25;73.54
61528;BME280;47395;42.032;-8.634;2022-08-24T03:29:26;100444.91;;;21.29;73.62
61528;BME280;47395;42.032;-8.634;2022-08-24T03:31:28;100435.19;;;21.28;73.22
61528;BME280;47395;42.032;-8.634;2022-08-24T03:33:29;100442.13;;;21.21;73.46
61528;BME280;47395;42.032;-8.634;2022-08-24T03:35:30;100443.47;;;21.07;73.73
61528;BME280;47395;42.032;-8.634;2022-08-24T03:37:32;100445.47;;;21.05;74.05
61528;BME280;47395;42.032;-8.634;2022-08-24T03:39:33;100437.38;;;21.15;73.59
61528;BME280;47395;42.032;-8.634;2022-08-24T03:41:34;100436.25;;;21.17;73.48
61528;BME280;47395;42.032;-8.634;2022-08-24T03:43:37;100437.91;;;21.18;73.73
61528;BME280;47395;42.032;-8.634;2022-08-24T03:45:50;100439.75;;;21.18;73.63
61528;BME280;47395;42.032;-8.634;2022-08-24T03:47:52;100447.88;;;21.08;74.04
61528;BME280;47395;42.032;-8.634;2022-08-24T03:49:54;100437.88;;;21.00;74.11
61528;BME280;47395;42.032;-8.634;2022-08-24T03:51:56;100433.25;;;21.02;74.10
61528;BME280;47395;42.032;-8.634;2022-08-24T03:53:58;100433.59;;;20.89;74.70
61528;BME280;47395;42.032;-8.634;2022-08-24T03:56:02;100433.31;;;20.82;75.22
61528;BME280;47395;42.032;-8.634;2022-08-24T03:58:03;100436.44;;;20.78;75.21
61528;BME280;47395;42.032;-8.634;2022-08-24T04:00:07;100431.75;;;20.90;75.02
61528;BME280;47395;42.032;-8.634;2022-08-24T04:04:52;100428.28;;;20.79;75.30
61528;BME280;47395;42.032;-8.634;2022-08-24T04:06:54;100438.38;;;20.85;74.83
61528;BME280;47395;42.032;-8.634;2022-08-24T04:08:56;100435.28;;;20.90;74.63
61528;BME280;47395;42.032;-8.634;2022-08-24T04:10:57;100442.31;;;20.91;74.43
61528;BME280;47395;42.032;-8.634;2022-08-24T04:12:58;100450.13;;;21.03;74.61
61528;BME280;47395;42.032;-8.634;2022-08-24T04:15:01;100445.88;;;21.10;74.23
61528;BME280;47395;42.032;-8.634;2022-08-24T04:17:03;100450.59;;;21.16;73.81
61528;BME280;47395;42.032;-8.634;2022-08-24T04:19:12;100457.44;;;21.10;73.57
61528;BME280;47395;42.032;-8.634;2022-08-24T04:21:27;100466.63;;;21.08;73.83
61528;BME280;47395;42.032;-8.634;2022-08-24T04:23:29;100464.22;;;21.05;73.61
61528;BME280;47395;42.032;-8.634;2022-08-24T04:25:30;100465.00;;;20.97;74.01
61528;BME280;47395;42.032;-8.634;2022-08-24T04:27:32;100461.31;;;20.98;74.16
61528;BME280;47395;42.032;-8.634;2022-08-24T04:29:33;100456.78;;;20.98;74.11
61528;BME280;47395;42.032;-8.634;2022-08-24T04:31:36;100459.78;;;20.95;74.09
61528;BME280;47395;42.032;-8.634;2022-08-24T04:33:38;100456.38;;;20.93;74.06
61528;BME280;47395;42.032;-8.634;2022-08-24T04:35:41;100461.06;;;20.91;74.20
61528;BME280;47395;42.032;-8.634;2022-08-24T04:37:43;100465.91;;;20.78;74.46
61528;BME280;47395;42.032;-8.634;2022-08-24T04:39:44;100470.16;;;20.70;74.87
61528;BME280;47395;42.032;-8.634;2022-08-24T04:41:54;100464.13;;;20.68;75.41
61528;BME280;47395;42.032;-8.634;2022-08-24T04:43:59;100470.94;;;20.53;75.79
61528;BME280;47395;42.032;-8.634;2022-08-24T04:46:05;100473.53;;;20.72;74.72
61528;BME280;47395;42.032;-8.634;2022-08-24T04:48:07;100475.78;;;20.67;74.92
61528;BME280;47395;42.032;-8.634;2022-08-24T04:50:09;100470.75;;;20.64;75.15
61528;BME280;47395;42.032;-8.634;2022-08-24T04:52:09;100474.44;;;20.63;75.43
61528;BME280;47395;42.032;-8.634;2022-08-24T04:54:12;100486.66;;;20.66;75.12
61528;BME280;47395;42.032;-8.634;2022-08-24T04:56:22;100481.25;;;20.47;75.71
61528;BME280;47395;42.032;-8.634;2022-08-24T04:58:24;100490.13;;;20.48;76.08
61528;BME280;47395;42.032;-8.634;2022-08-24T05:00:25;100491.94;;;20.47;76.29
61528;BME280;47395;42.032;-8.634;2022-08-24T05:02:26;100492.94;;;20.46;76.00
61528;BME280;47395;42.032;-8.634;2022-08-24T05:04:29;100488.59;;;20.35;76.70
61528;BME280;47395;42.032;-8.634;2022-08-24T05:06:31;100490.75;;;20.12;77.55
61528;BME280;47395;42.032;-8.634;2022-08-24T05:08:33;100485.28;;;20.14;77.96
61528;BME280;47395;42.032;-8.634;2022-08-24T05:10:37;100491.06;;;19.99;78.30
61528;BME280;47395;42.032;-8.634;2022-08-24T05:12:38;100497.78;;;19.93;78.43
61528;BME280;47395;42.032;-8.634;2022-08-24T05:14:43;100499.22;;;19.98;78.62
61528;BME280;47395;42.032;-8.634;2022-08-24T05:16:44;100495.81;;;19.95;79.11
61528;BME280;47395;42.032;-8.634;2022-08-24T05:18:45;100504.56;;;19.98;78.91
61528;BME280;47395;42.032;-8.634;2022-08-24T05:20:46;100512.31;;;20.01;78.46
61528;BME280;47395;42.032;-8.634;2022-08-24T05:22:50;100509.03;;;19.87;79.51
61528;BME280;47395;42.032;-8.634;2022-08-24T05:24:51;100508.22;;;20.06;78.58
61528;BME280;47395;42.032;-8.634;2022-08-24T05:26:52;100511.03;;;20.05;78.97
61528;BME280;47395;42.032;-8.634;2022-08-24T05:28:56;100517.50;;;20.12;78.74
61528;BME280;47395;42.032;-8.634;2022-08-24T05:31:12;100505.81;;;20.13;78.77
61528;BME280;47395;42.032;-8.634;2022-08-24T05:33:13;100519.50;;;20.10;78.69
61528;BME280;47395;42.032;-8.634;2022-08-24T05:35:14;100523.13;;;20.09;78.49
61528;BME280;47395;42.032;-8.634;2022-08-24T05:37:15;100530.03;;;20.21;78.32
61528;BME280;47395;42.032;-8.634;2022-08-24T05:39:45;100539.19;;;20.19;78.52
61528;BME280;47395;42.032;-8.634;2022-08-24T05:41:47;100528.63;;;20.17;78.93
61528;BME280;47395;42.032;-8.634;2022-08-24T05:43:55;100527.94;;;20.15;78.94
61528;BME280;47395;42.032;-8.634;2022-08-24T05:45:56;100535.66;;;20.18;78.66
61528;BME280;47395;42.032;-8.634;2022-08-24T05:47:57;100537.63;;;20.06;79.39
61528;BME280;47395;42.032;-8.634;2022-08-24T05:50:17;100536.09;;;20.14;79.10
61528;BME280;47395;42.032;-8.634;2022-08-24T05:52:21;100540.88;;;20.10;79.34
61528;BME280;47395;42.032;-8.634;2022-08-24T05:54:23;100546.50;;;20.07;79.27
61528;BME280;47395;42.032;-8.634;2022-08-24T05:56:31;100544.78;;;20.16;78.81
61528;BME280;47395;42.032;-8.634;2022-08-24T05:58:34;100546.06;;;20.21;78.46
61528;BME280;47395;42.032;-8.634;2022-08-24T06:00:36;100543.69;;;19.99;79.76
61528;BME280;47395;42.032;-8.634;2022-08-24T06:02:37;100545.25;;;20.11;79.27
61528;BME280;47395;42.032;-8.634;2022-08-24T06:04:38;100541.44;;;20.14;78.63
61528;BME280;47395;42.032;-8.634;2022-08-24T06:06:39;100549.88;;;20.29;78.50
61528;BME280;47395;42.032;-8.634;2022-08-24T06:08:44;100549.13;;;20.37;77.86
61528;BME280;47395;42.032;-8.634;2022-08-24T06:10:46;100557.75;;;20.30;77.64
61528;BME280;47395;42.032;-8.634;2022-08-24T06:12:47;100549.13;;;20.46;77.46
61528;BME280;47395;42.032;-8.634;2022-08-24T06:14:48;100543.78;;;20.46;77.60
61528;BME280;47395;42.032;-8.634;2022-08-24T06:16:54;100550.41;;;20.42;77.40
61528;BME280;47395;42.032;-8.634;2022-08-24T06:18:56;100557.41;;;20.53;76.66
61528;BME280;47395;42.032;-8.634;2022-08-24T06:21:07;100563.25;;;20.29;77.77
61528;BME280;47395;42.032;-8.634;2022-08-24T06:23:09;100556.94;;;20.10;78.30
61528;BME280;47395;42.032;-8.634;2022-08-24T06:25:15;100556.75;;;20.21;78.35
61528;BME280;47395;42.032;-8.634;2022-08-24T06:27:34;100563.09;;;20.20;78.22
61528;BME280;47395;42.032;-8.634;2022-08-24T06:29:35;100559.03;;;20.16;78.67
61528;BME280;47395;42.032;-8.634;2022-08-24T06:31:56;100562.66;;;20.25;77.54
61528;BME280;47395;42.032;-8.634;2022-08-24T06:33:58;100562.25;;;20.40;77.66
61528;BME280;47395;42.032;-8.634;2022-08-24T06:35:58;100572.22;;;20.47;76.83
61528;BME280;47395;42.032;-8.634;2022-08-24T06:37:59;100568.28;;;20.42;77.20
61528;BME280;47395;42.032;-8.634;2022-08-24T06:40:01;100574.91;;;20.38;77.78
61528;BME280;47395;42.032;-8.634;2022-08-24T06:42:04;100569.13;;;20.42;77.05
61528;BME280;47395;42.032;-8.634;2022-08-24T06:44:07;100578.16;;;20.41;77.06
61528;BME280;47395;42.032;-8.634;2022-08-24T06:46:20;100578.75;;;20.15;78.70
61528;BME280;47395;42.032;-8.634;2022-08-24T06:48:22;100581.28;;;20.17;78.72
61528;BME280;47395;42.032;-8.634;2022-08-24T06:50:24;100585.91;;;20.34;77.68
61528;BME280;47395;42.032;-8.634;2022-08-24T06:52:25;100590.41;;;20.34;77.27
61528;BME280;47395;42.032;-8.634;2022-08-24T06:54:26;100593.63;;;20.38;77.36
61528;BME280;47395;42.032;-8.634;2022-08-24T06:56:27;100589.81;;;20.40;77.19
61528;BME280;47395;42.032;-8.634;2022-08-24T06:58:28;100601.81;;;20.26;77.91
61528;BME280;47395;42.032;-8.634;2022-08-24T07:00:29;100598.16;;;20.37;77.39
61528;BME280;47395;42.032;-8.634;2022-08-24T07:02:30;100599.97;;;20.37;77.51
61528;BME280;47395;42.032;-8.634;2022-08-24T07:04:31;100596.63;;;20.25;78.31
61528;BME280;47395;42.032;-8.634;2022-08-24T07:06:58;100605.31;;;20.27;77.95
61528;BME280;47395;42.032;-8.634;2022-08-24T07:09:00;100608.72;;;20.09;78.54
61528;BME280;47395;42.032;-8.634;2022-08-24T07:11:02;100608.72;;;20.09;78.71
61528;BME280;47395;42.032;-8.634;2022-08-24T07:13:03;100610.13;;;20.13;78.77
61528;BME280;47395;42.032;-8.634;2022-08-24T07:15:05;100610.84;;;20.15;78.51
61528;BME280;47395;42.032;-8.634;2022-08-24T07:17:06;100604.91;;;20.12;78.63
61528;BME280;47395;42.032;-8.634;2022-08-24T07:19:07;100617.75;;;20.28;78.27
61528;BME280;47395;42.032;-8.634;2022-08-24T07:21:08;100620.28;;;20.19;78.46
61528;BME280;47395;42.032;-8.634;2022-08-24T07:23:15;100626.44;;;20.20;78.44
61528;BME280;47395;42.032;-8.634;2022-08-24T07:25:17;100628.16;;;20.21;78.62
61528;BME280;47395;42.032;-8.634;2022-08-24T07:27:18;100632.34;;;20.33;78.15
61528;BME280;47395;42.032;-8.634;2022-08-24T07:29:19;100630.94;;;20.39;78.11
61528;BME280;47395;42.032;-8.634;2022-08-24T07:31:22;100626.16;;;20.53;77.83
61528;BME280;47395;42.032;-8.634;2022-08-24T07:33:38;100631.03;;;20.77;76.69
61528;BME280;47395;42.032;-8.634;2022-08-24T07:35:39;100638.78;;;20.70;76.83
61528;BME280;47395;42.032;-8.634;2022-08-24T07:37:41;100634.84;;;20.94;75.70
61528;BME280;47395;42.032;-8.634;2022-08-24T07:39:42;100638.06;;;20.78;76.47
61528;BME280;47395;42.032;-8.634;2022-08-24T07:41:44;100641.47;;;20.80;76.08
61528;BME280;47395;42.032;-8.634;2022-08-24T07:43:46;100641.03;;;20.95;75.93
61528;BME280;47395;42.032;-8.634;2022-08-24T07:45:48;100647.13;;;21.25;74.86
61528;BME280;47395;42.032;-8.634;2022-08-24T07:47:52;100640.75;;;20.98;75.88
61528;BME280;47395;42.032;-8.634;2022-08-24T07:50:13;100639.13;;;21.15;75.37
61528;BME280;47395;42.032;-8.634;2022-08-24T07:52:14;100640.88;;;21.06;75.92
61528;BME280;47395;42.032;-8.634;2022-08-24T07:54:15;100647.88;;;21.17;74.96
61528;BME280;47395;42.032;-8.634;2022-08-24T07:56:17;100650.66;;;21.54;73.93
61528;BME280;47395;42.032;-8.634;2022-08-24T07:58:21;100644.53;;;21.89;72.35
61528;BME280;47395;42.032;-8.634;2022-08-24T08:00:24;100649.81;;;21.53;73.46
61528;BME280;47395;42.032;-8.634;2022-08-24T08:02:31;100656.72;;;21.56;73.61
61528;BME280;47395;42.032;-8.634;2022-08-24T08:04:33;100656.81;;;21.64;72.93
61528;BME280;47395;42.032;-8.634;2022-08-24T08:06:36;100651.97;;;21.77;72.43
61528;BME280;47395;42.032;-8.634;2022-08-24T08:08:39;100657.31;;;21.77;72.85
61528;BME280;47395;42.032;-8.634;2022-08-24T08:10:40;100656.28;;;21.88;72.50
61528;BME280;47395;42.032;-8.634;2022-08-24T08:12:41;100656.50;;;21.95;71.75
61528;BME280;47395;42.032;-8.634;2022-08-24T08:14:42;100660.75;;;22.16;71.46
61528;BME280;47395;42.032;-8.634;2022-08-24T08:16:45;100652.78;;;22.24;71.09
61528;BME280;47395;42.032;-8.634;2022-08-24T08:18:47;100655.53;;;22.33;70.69
61528;BME280;47395;42.032;-8.634;2022-08-24T08:20:48;100659.75;;;22.17;71.12
61528;BME280;47395;42.032;-8.634;2022-08-24T08:22:50;100654.53;;;22.52;69.80
61528;BME280;47395;42.032;-8.634;2022-08-24T08:25:30;100654.91;;;22.39;70.50
61528;BME280;47395;42.032;-8.634;2022-08-24T08:27:34;100653.41;;;22.54;69.51
61528;BME280;47395;42.032;-8.634;2022-08-24T08:29:37;100664.66;;;22.85;68.65
61528;BME280;47395;42.032;-8.634;2022-08-24T08:31:41;100662.88;;;22.67;69.11
61528;BME280;47395;42.032;-8.634;2022-08-24T08:33:42;100657.75;;;22.82;68.65
61528;BME280;47395;42.032;-8.634;2022-08-24T08:35:43;100665.38;;;23.21;67.03
61528;BME280;47395;42.032;-8.634;2022-08-24T08:37:45;100659.03;;;23.57;66.08
61528;BME280;47395;42.032;-8.634;2022-08-24T08:39:46;100679.09;;;23.37;66.49
61528;BME280;47395;42.032;-8.634;2022-08-24T08:48:16;100673.91;;;23.86;64.72
61528;BME280;47395;42.032;-8.634;2022-08-24T08:51:00;100668.06;;;23.99;64.20
61528;BME280;47395;42.032;-8.634;2022-08-24T08:56:00;100672.31;;;24.44;62.37
61528;BME280;47395;42.032;-8.634;2022-08-24T09:01:13;100670.09;;;25.62;58.85
61528;BME280;47395;42.032;-8.634;2022-08-24T09:09:41;100668.38;;;27.47;52.78
61528;BME280;47395;42.032;-8.634;2022-08-24T09:19:32;100683.34;;;30.76;44.66
61528;BME280;47395;42.032;-8.634;2022-08-24T09:22:18;100691.25;;;30.98;43.35
61528;BME280;47395;42.032;-8.634;2022-08-24T09:24:28;100690.81;;;32.38;40.90
61528;BME280;47395;42.032;-8.634;2022-08-24T09:29:14;100690.97;;;34.43;36.02
61528;BME280;47395;42.032;-8.634;2022-08-24T09:31:33;100684.94;;;34.88;35.30
61528;BME280;47395;42.032;-8.634;2022-08-24T09:34:07;100689.56;;;37.42;31.35
61528;BME280;47395;42.032;-8.634;2022-08-24T09:36:11;100693.50;;;36.32;32.16
61528;BME280;47395;42.032;-8.634;2022-08-24T09:38:48;100691.56;;;36.50;32.08
61528;BME280;47395;42.032;-8.634;2022-08-24T09:56:52;100698.03;;;37.63;30.24
61528;BME280;47395;42.032;-8.634;2022-08-24T10:04:48;100700.91;;;36.49;31.50
61528;BME280;47395;42.032;-8.634;2022-08-24T10:07:27;100707.00;;;36.91;30.96
61528;BME280;47395;42.032;-8.634;2022-08-24T10:09:41;100710.63;;;37.14;30.94
61528;BME280;47395;42.032;-8.634;2022-08-24T10:12:01;100710.41;;;38.15;29.20
61528;BME280;47395;42.032;-8.634;2022-08-24T10:14:40;100707.22;;;38.01;29.60
61528;BME280;47395;42.032;-8.634;2022-08-24T10:22:04;100711.31;;;37.98;29.77
61528;BME280;47395;42.032;-8.634;2022-08-24T10:24:35;100708.94;;;38.40;29.04
61528;BME280;47395;42.032;-8.634;2022-08-24T10:27:01;100700.16;;;38.81;28.95
61528;BME280;47395;42.032;-8.634;2022-08-24T10:32:10;100708.28;;;39.83;27.43
61528;BME280;47395;42.032;-8.634;2022-08-24T10:35:21;100693.97;;;40.23;26.82
61528;BME280;47395;42.032;-8.634;2022-08-24T10:40:39;100704.47;;;38.01;29.95
61528;BME280;47395;42.032;-8.634;2022-08-24T10:46:34;100701.75;;;37.51;31.31
61528;BME280;47395;42.032;-8.634;2022-08-24T10:55:28;100696.94;;;35.93;32.96
61528;BME280;47395;42.032;-8.634;2022-08-24T10:57:45;100695.44;;;36.03;32.66
61528;BME280;47395;42.032;-8.634;2022-08-24T11:00:09;100692.56;;;35.51;33.86
61528;BME280;47395;42.032;-8.634;2022-08-24T11:02:34;100698.50;;;36.70;32.30
61528;BME280;47395;42.032;-8.634;2022-08-24T11:04:36;100684.34;;;36.27;32.80
61528;BME280;47395;42.032;-8.634;2022-08-24T11:06:41;100686.13;;;36.04;33.09
61528;BME280;47395;42.032;-8.634;2022-08-24T11:08:57;100682.81;;;37.27;30.98
61528;BME280;47395;42.032;-8.634;2022-08-24T11:11:09;100683.34;;;37.52;30.62
61528;BME280;47395;42.032;-8.634;2022-08-24T11:13:28;100686.53;;;36.99;32.04
61528;BME280;47395;42.032;-8.634;2022-08-24T11:15:29;100683.19;;;38.19;29.34
61528;BME280;47395;42.032;-8.634;2022-08-24T11:17:31;100692.66;;;37.23;30.78
61528;BME280;47395;42.032;-8.634;2022-08-24T11:19:34;100683.59;;;36.49;32.10
61528;BME280;47395;42.032;-8.634;2022-08-24T11:24:06;100670.00;;;37.88;29.47
61528;BME280;47395;42.032;-8.634;2022-08-24T11:26:19;100665.97;;;36.44;32.07
61528;BME280;47395;42.032;-8.634;2022-08-24T11:28:39;100669.91;;;36.66;32.33
61528;BME280;47395;42.032;-8.634;2022-08-24T11:30:43;100663.63;;;36.36;32.45
61528;BME280;47395;42.032;-8.634;2022-08-24T11:32:49;100675.59;;;37.71;30.63
61528;BME280;47395;42.032;-8.634;2022-08-24T11:34:51;100666.09;;;37.12;31.29
61528;BME280;47395;42.032;-8.634;2022-08-24T11:36:52;100665.19;;;38.06;29.92
61528;BME280;47395;42.032;-8.634;2022-08-24T11:39:19;100659.31;;;38.24;29.17
61528;BME280;47395;42.032;-8.634;2022-08-24T11:41:28;100662.38;;;38.71;28.23
61528;BME280;47395;42.032;-8.634;2022-08-24T11:44:08;100672.38;;;37.52;30.41
61528;BME280;47395;42.032;-8.634;2022-08-24T11:57:22;100667.34;;;39.28;28.53
61528;BME280;47395;42.032;-8.634;2022-08-24T11:59:48;100671.28;;;37.53;31.03
61528;BME280;47395;42.032;-8.634;2022-08-24T12:01:55;100663.41;;;37.89;30.20
61528;BME280;47395;42.032;-8.634;2022-08-24T12:04:48;100675.28;;;36.78;32.02
61528;BME280;47395;42.032;-8.634;2022-08-24T12:07:16;100662.63;;;36.08;33.47
61528;BME280;47395;42.032;-8.634;2022-08-24T12:10:06;100664.13;;;35.99;33.42
61528;BME280;47395;42.032;-8.634;2022-08-24T12:15:32;100661.44;;;35.05;34.81
61528;BME280;47395;42.032;-8.634;2022-08-24T12:17:54;100667.41;;;35.66;34.40
61528;BME280;47395;42.032;-8.634;2022-08-24T12:22:26;100674.47;;;36.43;32.96
61528;BME280;47395;42.032;-8.634;2022-08-24T12:24:33;100668.94;;;36.09;33.15
61528;BME280;47395;42.032;-8.634;2022-08-24T12:26:42;100673.09;;;36.11;33.19
61528;BME280;47395;42.032;-8.634;2022-08-24T12:28:55;100671.19;;;36.12;32.70